Weather reports worldwide

Advertisment
Adra, Spain (8486): temperature & dewpoint: 13.03.2019 10:00:00 - 19.03.2019 10:00:00 (CET)Adra, Spain (8486): wind speed & gusts: 13.03.2019 10:00:00 - 19.03.2019 10:00:00 (CET)Adra, Spain (8486): wind direction: 13.03.2019 10:00:00 - 19.03.2019 10:00:00 (CET)Adra, Spain (8486): reduced air pressure: 13.03.2019 10:00:00 - 19.03.2019 10:00:00 (CET)Adra, Spain (8486): precipitation: 13.03.2019 10:00:00 - 19.03.2019 10:00:00 (CET)
Date & Time tt [°C] td [°C] ff [km/h] ff [kn] fx [km/h] fx [kn] dd ppp [hPa] rr [mm]
19.03.2019 10:00:00 - - - - - - - - -
19.03.2019 09:00:00 - - - - - - - - -
19.03.2019 08:00:00 13,7 11,8 4 2 10 5 ENE 1024,3 0,0
19.03.2019 07:00:00 13,6 11,8 1 1 6 3 NNW 1024,0 -
19.03.2019 06:00:00 14,0 11,9 2 1 6 4 NE 1024,0 0,0
19.03.2019 05:00:00 14,0 11,3 3 2 9 5 SSE 1024,0 0,0
19.03.2019 04:00:00 14,5 10,8 3 2 10 5 NNE 1024,1 0,0
19.03.2019 03:00:00 14,6 10,8 4 2 10 5 ENE 1024,6 0,0
19.03.2019 02:00:00 14,7 10,8 4 2 14 8 ENE 1025,1 0,0
19.03.2019 01:00:00 14,8 10,8 6 4 16 9 E 1025,3 -
19.03.2019 00:00:00 14,8 10,8 8 4 16 9 E 1025,6 0,0
18.03.2019 23:00:00 14,9 10,9 6 4 18 10 E 1025,8 0,0
18.03.2019 22:00:00 15,2 11,0 6 3 18 10 ENE 1025,5 0,0
18.03.2019 21:00:00 15,2 11,8 8 4 22 12 ENE 1025,4 0,0
18.03.2019 20:00:00 15,4 12,0 10 6 23 12 ENE 1024,6 0,0
18.03.2019 19:00:00 15,6 12,3 8 5 27 15 ENE 1024,2 -
18.03.2019 18:00:00 15,5 12,4 14 8 29 15 ENE 1023,5 0,0
18.03.2019 17:00:00 15,5 12,4 16 9 30 16 ENE 1023,0 0,0
18.03.2019 16:00:00 16,1 12,8 18 10 30 16 NE 1022,7 0,0
18.03.2019 15:00:00 16,2 12,1 14 8 25 14 SE 1022,4 0,0
18.03.2019 14:00:00 17,1 12,2 9 5 23 13 SSE 1022,0 0,0
18.03.2019 13:00:00 17,5 12,0 15 8 34 18 SE 1022,2 -
18.03.2019 12:00:00 17,9 11,7 11 6 21 12 SE 1022,5 0,0
18.03.2019 11:00:00 18,5 9,6 2 1 23 12 ENE 1021,7 0,0
18.03.2019 10:00:00 19,1 9,6 5 3 12 6 SW 1021,0 0,0
18.03.2019 09:00:00 18,1 8,9 4 2 7 4 SE 1019,9 0,0
18.03.2019 08:00:00 16,7 8,9 2 1 8 4 ENE 1020,3 0,0
18.03.2019 07:00:00 14,5 8,3 3 1 13 7 N 1020,4 -
18.03.2019 06:00:00 15,8 8,5 3 1 14 7 NE 1019,9 0,0
18.03.2019 05:00:00 16,0 8,5 3 2 36 19 ENE 1019,1 0,0
18.03.2019 04:00:00 19,4 2,3 5 3 16 9 NNE 1016,9 0,0
18.03.2019 03:00:00 18,8 3,8 7 4 16 8 NNE 1016,7 0,0
18.03.2019 02:00:00 17,5 7,8 2 1 11 6 WNW 1017,4 0,0
18.03.2019 01:00:00 19,8 1,7 7 4 11 6 NNE 1016,4 -
18.03.2019 00:00:00 18,3 4,5 3 1 13 7 N 1017,1 0,0
17.03.2019 23:00:00 16,9 12,4 2 1 15 8 NNW 1017,1 0,0
17.03.2019 22:00:00 18,0 10,6 2 1 13 7 WNW 1016,4 0,0
17.03.2019 21:00:00 18,5 9,0 4 2 11 6 NW 1015,9 0,0
17.03.2019 20:00:00 19,3 8,3 3 1 9 5 E 1014,9 0,0
17.03.2019 19:00:00 21,4 9,3 3 2 13 7 NE 1014,3 -
17.03.2019 18:00:00 22,6 9,4 6 3 14 8 E 1013,5 0,0
17.03.2019 17:00:00 24,4 11,0 1 1 12 7 S 1012,4 0,0
17.03.2019 16:00:00 22,1 11,8 7 4 17 9 E 1013,2 0,0
17.03.2019 15:00:00 21,3 11,6 7 4 16 9 E 1013,8 0,0
17.03.2019 14:00:00 19,8 11,0 8 4 13 7 SE 1015,1 0,0
17.03.2019 13:00:00 18,4 12,4 6 3 10 5 SSE 1017,2 -
17.03.2019 12:00:00 20,7 13,4 2 1 16 9 S 1017,6 0,0
17.03.2019 11:00:00 18,5 9,6 6 3 13 7 SW 1018,2 0,0
17.03.2019 10:00:00 19,4 10,2 1 1 8 4 SSE 1018,0 0,0
17.03.2019 09:00:00 17,6 8,4 4 2 6 4 E 1018,3 0,0
17.03.2019 08:00:00 17,1 8,0 0 0 6 3 NNE 1018,5 0,0
17.03.2019 07:00:00 12,7 2,5 4 2 8 4 N 1019,4 -
17.03.2019 06:00:00 12,6 2,5 2 1 6 3 N 1019,2 0,0
17.03.2019 05:00:00 12,7 3,4 2 1 5 3 N 1019,3 0,0
17.03.2019 04:00:00 13,0 4,1 4 2 6 3 N 1018,9 0,0
17.03.2019 03:00:00 13,5 4,3 4 2 5 3 N 1019,5 0,0
17.03.2019 02:00:00 13,5 5,1 3 2 6 4 NNE 1020,2 0,0
17.03.2019 01:00:00 14,0 6,4 3 2 6 4 N 1020,7 -
17.03.2019 00:00:00 14,3 6,7 2 1 6 3 N 1021,2 0,0
16.03.2019 23:00:00 14,9 6,2 3 2 6 3 N 1021,6 0,0
16.03.2019 22:00:00 15,4 6,7 0 0 7 4 N 1021,9 0,0
16.03.2019 21:00:00 15,6 6,5 4 2 6 4 N 1021,8 0,0
16.03.2019 20:00:00 16,5 8,9 4 2 9 5 WNW 1021,4 0,0
16.03.2019 19:00:00 17,0 10,6 4 2 11 6 W 1020,8 -
16.03.2019 18:00:00 19,5 7,8 5 3 10 5 SW 1019,7 0,0
16.03.2019 17:00:00 20,1 8,1 3 2 9 5 SSE 1019,0 0,0
16.03.2019 16:00:00 20,3 5,9 4 2 10 5 S 1019,1 0,0
16.03.2019 15:00:00 22,2 7,6 3 1 9 5 SSW 1019,4 0,0
16.03.2019 14:00:00 20,3 6,5 6 3 11 6 SW 1021,1 0,0
16.03.2019 13:00:00 21,5 8,4 1 1 10 5 SW 1022,5 -
16.03.2019 12:00:00 19,7 11,0 3 2 10 6 SW 1023,3 0,0
16.03.2019 11:00:00 17,6 12,1 6 3 15 8 SE 1023,5 0,0
16.03.2019 10:00:00 18,2 7,6 6 3 10 6 SE 1023,9 0,0
16.03.2019 09:00:00 17,7 8,0 6 3 10 5 WSW 1023,9 0,0
16.03.2019 08:00:00 18,0 3,8 2 1 17 9 WNW 1023,8 0,0
16.03.2019 07:00:00 14,4 2,9 3 2 7 4 NW 1024,9 -
16.03.2019 06:00:00 13,4 7,1 1 1 6 3 NE 1025,2 0,0
16.03.2019 05:00:00 13,5 8,1 0 0 8 4 E 1025,3 0,0
16.03.2019 04:00:00 14,1 8,5 3 2 6 3 NNE 1025,2 0,0
16.03.2019 03:00:00 13,9 8,3 3 1 5 3 N 1025,6 0,0
16.03.2019 02:00:00 14,6 7,4 1 1 18 10 NE 1026,2 0,0
16.03.2019 01:00:00 14,4 5,8 0 0 8 4 NNW 1026,1 -
16.03.2019 00:00:00 13,9 7,7 3 1 4 2 N 1026,5 0,0
15.03.2019 23:00:00 14,7 8,0 1 1 9 5 N 1026,9 0,0
15.03.2019 22:00:00 15,6 8,1 3 1 7 4 ENE 1026,6 0,0
15.03.2019 21:00:00 16,1 9,3 3 1 8 5 W 1026,0 0,0
15.03.2019 20:00:00 16,1 11,2 6 3 8 4 W 1025,6 0,0
15.03.2019 19:00:00 16,6 10,6 5 3 8 5 WSW 1025,4 -
15.03.2019 18:00:00 19,8 11,0 2 1 8 4 SSW 1023,7 0,0
15.03.2019 17:00:00 19,5 10,8 5 3 11 6 SSW 1023,5 0,0
15.03.2019 16:00:00 19,0 11,3 7 4 18 10 SW 1023,8 0,0
15.03.2019 15:00:00 19,1 10,9 9 5 17 9 SW 1024,1 0,0
15.03.2019 14:00:00 19,4 9,0 7 4 13 7 SW 1024,4 0,0
15.03.2019 13:00:00 18,6 9,0 7 4 12 7 SW 1026,3 -
15.03.2019 12:00:00 18,0 10,2 8 4 15 8 SW 1027,2 0,0
15.03.2019 11:00:00 17,9 9,8 6 3 13 7 SW 1027,2 0,0
15.03.2019 10:00:00 18,9 9,4 3 2 8 4 SSW 1026,7 0,0
15.03.2019 09:00:00 17,0 7,8 5 3 7 4 SW 1027,3 0,0
15.03.2019 08:00:00 16,5 8,5 0 0 5 3 NW 1027,2 0,0
15.03.2019 07:00:00 12,3 6,8 1 1 4 2 N 1028,2 -
15.03.2019 06:00:00 12,4 7,3 0 0 6 3 NNE 1028,0 0,0
15.03.2019 05:00:00 12,5 7,1 4 2 8 4 N 1027,8 0,0
15.03.2019 04:00:00 12,9 7,3 5 3 7 4 N 1027,8 0,0
15.03.2019 03:00:00 12,9 7,7 3 2 8 4 N 1028,3 0,0
15.03.2019 02:00:00 13,4 7,6 3 2 8 4 ENE 1028,5 0,0
15.03.2019 01:00:00 13,9 8,8 2 1 13 7 N 1028,6 -
15.03.2019 00:00:00 13,9 9,6 3 1 8 4 NE 1029,4 0,0
14.03.2019 23:00:00 14,0 10,0 0 0 8 4 NNE 1029,6 0,0
14.03.2019 22:00:00 14,4 10,6 3 2 7 4 N 1029,4 0,0
14.03.2019 21:00:00 14,8 11,3 1 1 8 5 N 1028,9 0,0
14.03.2019 20:00:00 15,3 11,9 3 2 10 6 NE 1028,2 0,0
14.03.2019 19:00:00 15,8 11,6 3 2 9 5 ENE 1028,0 -
14.03.2019 18:00:00 16,3 11,4 5 3 9 5 SSE 1027,3 0,0
14.03.2019 17:00:00 16,9 11,6 6 3 11 6 SE 1027,0 0,0
14.03.2019 16:00:00 17,0 10,6 7 4 13 7 SE 1027,2 0,0
14.03.2019 15:00:00 17,0 9,4 8 5 16 9 SE 1027,5 0,0
14.03.2019 14:00:00 16,8 8,0 10 5 14 7 SE 1028,0 0,0
14.03.2019 13:00:00 17,3 8,1 9 5 14 8 SE 1029,3 -
14.03.2019 12:00:00 17,5 7,0 8 5 17 9 SE 1029,8 0,0
14.03.2019 11:00:00 17,6 6,7 10 5 17 9 SE 1029,9 0,0
14.03.2019 10:00:00 17,5 3,8 10 6 18 10 ESE 1029,7 0,0
14.03.2019 09:00:00 17,7 5,6 5 3 14 8 NE 1029,6 0,0
14.03.2019 08:00:00 16,0 7,0 7 4 15 8 NNE 1029,6 0,0
14.03.2019 07:00:00 14,1 6,7 4 2 11 6 NE 1029,7 -
14.03.2019 06:00:00 14,6 7,1 4 2 12 6 NE 1029,1 0,0
14.03.2019 05:00:00 15,0 7,0 6 3 17 9 NNE 1028,8 0,0
14.03.2019 04:00:00 15,6 6,2 3 2 15 8 NE 1028,5 0,0
14.03.2019 03:00:00 15,9 6,4 6 3 19 11 ENE 1028,9 0,0
14.03.2019 02:00:00 14,6 7,4 5 3 16 9 ENE 1029,4 0,0
14.03.2019 01:00:00 15,8 7,0 6 4 18 10 ENE 1028,7 -
14.03.2019 00:00:00 16,3 8,3 9 5 20 11 ENE 1028,5 0,0
13.03.2019 23:00:00 16,6 9,0 5 3 15 8 E 1028,3 0,0
13.03.2019 22:00:00 16,8 10,4 11 6 24 13 E 1027,7 0,0
13.03.2019 21:00:00 17,5 12,2 8 4 19 10 E 1026,6 0,0
13.03.2019 20:00:00 18,1 10,6 7 4 19 10 E 1025,7 0,0
13.03.2019 19:00:00 18,9 9,0 7 4 26 14 E 1024,8 -
13.03.2019 18:00:00 20,0 8,7 12 7 26 14 E 1023,4 0,0
13.03.2019 17:00:00 21,3 8,9 12 6 35 19 E 1021,8 0,0
13.03.2019 16:00:00 20,8 11,1 5 3 13 7 SE 1021,0 0,0
13.03.2019 15:00:00 - - - - - - - - -
13.03.2019 14:00:00 18,7 13,6 7 4 13 7 SE 1021,2 0,0
13.03.2019 13:00:00 18,2 13,9 8 4 13 7 SE 1021,9 -
13.03.2019 12:00:00 17,4 14,1 8 4 13 7 SE 1022,2 0,0
13.03.2019 11:00:00 17,0 13,8 7 4 16 8 SE 1022,1 0,0
13.03.2019 10:00:00 16,7 13,7 8 4 12 7 SE 1021,9 0,0

tt = temperature
td = dewpoint
ff = wind speed
fx = gusts
dd = wind direction
ppp = reduced air pressure
rr = precipitation

Next stations